createdAt,value
2023-03-30T00:01:21.298Z,100035.09
2023-03-30T00:03:50.620Z,100025.25
2023-03-30T00:06:23.149Z,100021.66
2023-03-30T00:08:57.519Z,100021.81
2023-03-30T00:11:27.075Z,100009.03
2023-03-30T00:13:57.202Z,100008.75
2023-03-30T00:16:25.837Z,100021.53
2023-03-30T00:18:54.521Z,100020.44
2023-03-30T00:21:23.196Z,100009.16
2023-03-30T00:23:52.576Z,100020.44
2023-03-30T00:26:21.605Z,100007.94
2023-03-30T00:28:50.095Z,100015.16
2023-03-30T00:31:20.630Z,100021.03
2023-03-30T00:33:49.262Z,100021.84
2023-03-30T00:36:18.223Z,100018.38
2023-03-30T00:38:48.557Z,100021.16
2023-03-30T00:41:18.035Z,100017.22
2023-03-30T00:44:01.164Z,100017.06
2023-03-30T00:46:32.468Z,100014.44
2023-03-30T00:49:04.369Z,100015.16
2023-03-30T00:51:36.480Z,100002.09
2023-03-30T00:54:12.503Z,99992.38
2023-03-30T00:56:41.422Z,99997.66
2023-03-30T00:59:10.696Z,99997.09
2023-03-30T01:01:41.976Z,99997.94
2023-03-30T01:04:11.520Z,99972.97
2023-03-30T01:06:43.746Z,99989.19
2023-03-30T01:09:12.655Z,99992.94
2023-03-30T01:11:41.524Z,99991.00
2023-03-30T01:14:12.728Z,99980.16
2023-03-30T01:16:49.494Z,99980.91
2023-03-30T01:19:48.430Z,99971.03
2023-03-30T01:23:03.982Z,99964.97
2023-03-30T01:25:53.216Z,99962.16
2023-03-30T01:28:32.445Z,99955.94
2023-03-30T01:31:33.901Z,99959.69
2023-03-30T01:34:29.856Z,99953.28
2023-03-30T01:37:27.789Z,99935.78
2023-03-30T01:40:02.523Z,99949.69
2023-03-30T01:42:38.828Z,99959.41
2023-03-30T01:45:14.684Z,99954.25
2023-03-30T01:47:54.076Z,99954.53
2023-03-30T01:50:27.184Z,99949.38
2023-03-30T01:53:00.228Z,99942.28
2023-03-30T01:55:36.709Z,99932.72
2023-03-30T01:58:11.994Z,99939.41
2023-03-30T02:00:45.162Z,99934.28
2023-03-30T02:03:17.559Z,99927.72
2023-03-30T02:05:48.801Z,99924.38
2023-03-30T02:08:22.703Z,99924.13
2023-03-30T02:10:55.103Z,99918.56
2023-03-30T02:13:26.845Z,99917.72
2023-03-30T02:16:01.180Z,99913.84
2023-03-30T02:18:29.915Z,99912.75
2023-03-30T02:20:59.557Z,99914.41
2023-03-30T02:23:33.989Z,99911.22
2023-03-30T02:26:05.002Z,99903.59
2023-03-30T02:28:34.457Z,99912.47
2023-03-30T02:31:03.870Z,99906.09
2023-03-30T02:33:49.742Z,99893.34
2023-03-30T02:36:38.860Z,99890.28
2023-03-30T02:39:26.621Z,99879.34
2023-03-30T02:42:13.089Z,99868.34
2023-03-30T02:44:49.307Z,99873.50
2023-03-30T02:47:25.486Z,99884.75
2023-03-30T02:49:59.013Z,99873.34
2023-03-30T02:52:50.039Z,99872.09
2023-03-30T02:55:23.180Z,99872.69
2023-03-30T02:58:07.641Z,99873.91
2023-03-30T03:00:43.543Z,99864.63
2023-03-30T03:03:19.068Z,99866.97
2023-03-30T03:05:48.922Z,99858.09
2023-03-30T03:08:19.927Z,99852.28
2023-03-30T03:10:48.402Z,99859.22
2023-03-30T03:13:20.996Z,99851.16
2023-03-30T03:15:49.907Z,99835.91
2023-03-30T03:18:18.894Z,99842.44
2023-03-30T03:20:47.374Z,99843.13
2023-03-30T03:23:16.215Z,99832.97
2023-03-30T03:25:44.859Z,99828.69
2023-03-30T03:28:13.447Z,99823.13
2023-03-30T03:30:43.758Z,99828.97
2023-03-30T03:33:12.472Z,99825.06
2023-03-30T03:35:41.004Z,99826.31
2023-03-30T03:38:09.681Z,99828.97
2023-03-30T03:40:38.124Z,99812.00
2023-03-30T03:43:06.932Z,99822.56
2023-03-30T03:45:35.660Z,99797.16
2023-03-30T03:48:05.679Z,99796.31
2023-03-30T03:50:34.164Z,99798.94
2023-03-30T03:53:02.543Z,99796.03
2023-03-30T03:55:34.975Z,99784.50
2023-03-30T03:58:03.611Z,99777.56
2023-03-30T04:00:32.707Z,99775.91
2023-03-30T04:03:01.478Z,99772.16
2023-03-30T04:05:31.520Z,99770.63
2023-03-30T04:07:59.978Z,99757.44
2023-03-30T04:10:28.454Z,99744.81
2023-03-30T04:12:57.652Z,99749.94
2023-03-30T04:15:26.565Z,99761.31
2023-03-30T04:17:58.500Z,99775.59
2023-03-30T04:20:28.283Z,99778.13
2023-03-30T04:23:01.979Z,99796.28
2023-03-30T04:25:31.377Z,99797.28
2023-03-30T04:27:59.954Z,99800.59
2023-03-30T04:30:30.716Z,99800.75
2023-03-30T04:33:04.807Z,99792.56
2023-03-30T04:35:34.996Z,99780.94
2023-03-30T04:38:04.921Z,99774.81
2023-03-30T04:40:34.182Z,99740.13
2023-03-30T04:43:04.121Z,99754.28
2023-03-30T04:45:32.797Z,99749.31
2023-03-30T04:48:01.365Z,99752.63
2023-03-30T04:50:29.967Z,99751.53
2023-03-30T04:52:58.514Z,99744.84
2023-03-30T04:55:28.670Z,99750.41
2023-03-30T04:57:57.034Z,99756.66
2023-03-30T05:00:25.709Z,99753.75
2023-03-30T05:02:54.233Z,99730.75
2023-03-30T05:05:22.787Z,99732.53
2023-03-30T05:07:52.191Z,99738.34
2023-03-30T05:10:20.798Z,99750.44
2023-03-30T05:12:50.635Z,99742.22
2023-03-30T05:15:19.238Z,99731.00
2023-03-30T05:17:47.714Z,99731.28
2023-03-30T05:20:16.780Z,99744.03
2023-03-30T05:22:47.144Z,99735.16
2023-03-30T05:25:15.747Z,99720.84
2023-03-30T05:27:44.594Z,99704.91
2023-03-30T05:30:15.348Z,99717.69
2023-03-30T05:32:43.993Z,99715.19
2023-03-30T05:35:13.379Z,99716.56
2023-03-30T05:37:41.955Z,99725.44
2023-03-30T05:40:12.158Z,99695.22
2023-03-30T05:42:40.782Z,99720.00
2023-03-30T05:45:11.386Z,99721.94
2023-03-30T05:47:41.395Z,99707.38
2023-03-30T05:50:11.687Z,99719.31
2023-03-30T05:52:40.320Z,99722.47
2023-03-30T05:55:09.388Z,99723.03
2023-03-30T05:57:37.889Z,99718.00
2023-03-30T06:00:10.330Z,99727.00
2023-03-30T06:02:38.880Z,99715.03
2023-03-30T06:05:10.067Z,99721.53
2023-03-30T06:07:39.010Z,99716.19
2023-03-30T06:10:09.016Z,99723.53
2023-03-30T06:12:39.612Z,99708.53
2023-03-30T06:15:09.415Z,99727.09
2023-03-30T06:17:38.297Z,99727.63
2023-03-30T06:20:12.846Z,99713.44
2023-03-30T06:22:43.031Z,99678.53
2023-03-30T06:25:13.771Z,99687.28
2023-03-30T06:27:44.701Z,99676.28
2023-03-30T06:30:15.544Z,99669.88
2023-03-30T06:32:44.309Z,99671.91
2023-03-30T06:35:16.055Z,99677.94
2023-03-30T06:37:45.169Z,99659.91
2023-03-30T06:40:14.823Z,99661.63
2023-03-30T06:42:44.985Z,99680.72
2023-03-30T06:45:13.799Z,99682.25
2023-03-30T06:47:42.786Z,99687.75
2023-03-30T06:50:12.192Z,99679.75
2023-03-30T06:52:42.208Z,99669.69
2023-03-30T06:55:10.909Z,99679.50
2023-03-30T06:57:39.530Z,99693.38
2023-03-30T07:00:13.943Z,99684.16
2023-03-30T07:02:43.039Z,99679.63
2023-03-30T07:05:13.330Z,99673.09
2023-03-30T07:07:43.558Z,99675.13
2023-03-30T07:10:12.997Z,99678.41
2023-03-30T07:12:43.000Z,99690.09
2023-03-30T07:15:14.549Z,99683.28
2023-03-30T07:17:43.512Z,99675.91
2023-03-30T07:20:15.118Z,99675.78
2023-03-30T07:22:45.140Z,99654.66
2023-03-30T07:25:13.817Z,99671.72
2023-03-30T07:27:42.415Z,99669.94
2023-03-30T07:30:21.345Z,99687.97
2023-03-30T07:32:52.343Z,99673.94
2023-03-30T07:35:20.917Z,99661.41
2023-03-30T07:37:51.308Z,99649.50
2023-03-30T07:40:20.342Z,99647.19
2023-03-30T07:42:50.841Z,99646.88
2023-03-30T07:45:19.530Z,99635.97
2023-03-30T07:47:48.072Z,99645.56
2023-03-30T07:50:16.907Z,99647.41
2023-03-30T07:52:45.587Z,99638.31
2023-03-30T07:55:15.503Z,99624.59
2023-03-30T07:57:44.629Z,99626.41
2023-03-30T08:00:14.804Z,99626.41
2023-03-30T08:02:45.010Z,99614.47
2023-03-30T08:05:13.834Z,99602.03
2023-03-30T08:07:42.385Z,99585.81
2023-03-30T08:10:11.788Z,99582.59
2023-03-30T08:12:41.729Z,99583.59
2023-03-30T08:15:11.589Z,99587.34
2023-03-30T08:17:40.154Z,99587.22
2023-03-30T08:20:11.773Z,99597.63
2023-03-30T08:22:40.636Z,99572.25
2023-03-30T08:25:10.170Z,99592.91
2023-03-30T08:27:38.753Z,99591.75
2023-03-30T08:30:10.853Z,99575.19
2023-03-30T08:32:39.382Z,99587.72
2023-03-30T08:35:09.094Z,99583.06
2023-03-30T08:37:37.576Z,99585.41
2023-03-30T08:40:10.427Z,99565.84
2023-03-30T08:43:05.600Z,99566.13
2023-03-30T08:45:42.517Z,99566.78
2023-03-30T08:48:18.397Z,99559.94
2023-03-30T08:50:55.364Z,99551.28
2023-03-30T08:53:25.081Z,99549.09
2023-03-30T08:55:59.150Z,99544.25
2023-03-30T08:58:40.489Z,99549.06
2023-03-30T09:01:20.560Z,99557.75
2023-03-30T09:04:02.157Z,99546.78
2023-03-30T09:06:43.354Z,99558.75
2023-03-30T09:09:15.823Z,99564.44
2023-03-30T09:11:47.845Z,99548.03
2023-03-30T09:14:23.564Z,99535.44
2023-03-30T09:17:05.534Z,99549.56
2023-03-30T09:19:39.623Z,99538.81
2023-03-30T09:22:09.276Z,99531.75
2023-03-30T09:24:38.525Z,99531.47
2023-03-30T09:27:16.210Z,99520.56
2023-03-30T09:29:52.192Z,99514.75
2023-03-30T09:32:32.702Z,99502.81
2023-03-30T09:35:07.904Z,99487.34
2023-03-30T09:37:37.959Z,99482.03
2023-03-30T09:40:25.924Z,99490.91
2023-03-30T09:43:02.296Z,99485.69
2023-03-30T09:45:34.879Z,99473.88
2023-03-30T09:48:09.989Z,99468.84
2023-03-30T09:50:41.392Z,99468.25
2023-03-30T09:53:21.628Z,99450.47
2023-03-30T09:56:01.779Z,99446.22
2023-03-30T09:58:31.886Z,99437.81
2023-03-30T10:01:08.679Z,99438.31
2023-03-30T10:03:38.901Z,99429.31
2023-03-30T10:06:09.792Z,99438.91
2023-03-30T10:08:44.318Z,99449.59
2023-03-30T10:11:13.456Z,99452.25
2023-03-30T10:13:44.898Z,99460.03
2023-03-30T10:16:29.050Z,99442.53
2023-03-30T10:19:02.983Z,99463.88
2023-03-30T10:21:36.223Z,99456.66
2023-03-30T10:24:09.943Z,99447.63
2023-03-30T10:26:44.701Z,99453.78
2023-03-30T10:29:15.809Z,99447.25
2023-03-30T10:31:48.542Z,99444.56
2023-03-30T10:34:21.426Z,99446.41
2023-03-30T10:36:54.842Z,99430.78
2023-03-30T10:39:27.269Z,99448.03
2023-03-30T10:41:59.281Z,99441.66
2023-03-30T10:44:33.225Z,99442.06
2023-03-30T10:47:17.625Z,99444.72
2023-03-30T10:49:57.530Z,99434.06
2023-03-30T10:52:35.729Z,99436.50
2023-03-30T10:55:16.994Z,99422.56
2023-03-30T10:57:54.497Z,99426.91
2023-03-30T11:00:50.955Z,99423.84
2023-03-30T11:03:27.415Z,99413.19
2023-03-30T11:06:04.396Z,99426.94
2023-03-30T11:08:38.031Z,99430.84
2023-03-30T11:11:09.023Z,99406.59
2023-03-30T11:13:41.169Z,99430.06
2023-03-30T11:16:16.527Z,99410.34
2023-03-30T11:18:53.443Z,99410.81
2023-03-30T11:21:28.943Z,99400.97
2023-03-30T11:24:01.107Z,99409.63
2023-03-30T11:26:37.326Z,99404.28
2023-03-30T11:29:18.716Z,99409.00
2023-03-30T11:31:55.604Z,99430.16
2023-03-30T11:34:32.832Z,99441.66
2023-03-30T11:37:10.413Z,99426.66
2023-03-30T11:39:42.888Z,99443.69
2023-03-30T11:42:17.880Z,99431.81
2023-03-30T11:44:46.422Z,99447.03
2023-03-30T11:47:56.685Z,99450.72
2023-03-30T11:50:45.770Z,99456.06
2023-03-30T11:53:25.603Z,99456.47
2023-03-30T11:56:07.136Z,99462.59
2023-03-30T11:58:41.983Z,99469.97
2023-03-30T12:01:32.926Z,99463.38
2023-03-30T12:04:08.421Z,99468.25
2023-03-30T12:06:41.468Z,99455.72
2023-03-30T12:09:26.787Z,99462.47
2023-03-30T12:12:02.531Z,99465.69
2023-03-30T12:14:50.973Z,99472.28
2023-03-30T12:17:33.482Z,99466.88
2023-03-30T12:20:09.434Z,99480.44
2023-03-30T12:22:42.550Z,99470.56
2023-03-30T12:25:38.631Z,99468.50
2023-03-30T12:28:14.293Z,99465.84
2023-03-30T12:30:45.822Z,99457.22
2023-03-30T12:33:18.645Z,99441.34
2023-03-30T12:35:54.195Z,99442.56
2023-03-30T12:38:25.802Z,99446.78
2023-03-30T12:41:18.649Z,99440.19
2023-03-30T12:44:15.960Z,99433.41
2023-03-30T12:46:58.691Z,99433.03
2023-03-30T12:49:37.230Z,99439.78
2023-03-30T12:52:14.348Z,99434.22
2023-03-30T12:55:08.005Z,99429.91
2023-03-30T12:57:57.261Z,99421.91
2023-03-30T13:01:04.989Z,99433.84
2023-03-30T13:03:40.597Z,99418.69
2023-03-30T13:06:17.033Z,99423.56
2023-03-30T13:08:46.139Z,99420.66
2023-03-30T13:11:18.018Z,99436.66
2023-03-30T13:13:52.562Z,99416.97
2023-03-30T13:17:03.318Z,99423.31
2023-03-30T13:19:49.490Z,99417.81
2023-03-30T13:22:29.317Z,99412.09
2023-03-30T13:25:02.064Z,99408.00
2023-03-30T13:27:34.283Z,99420.13
2023-03-30T13:30:06.857Z,99400.59
2023-03-30T13:32:50.158Z,99403.25
2023-03-30T13:35:56.618Z,99396.28
2023-03-30T13:38:48.848Z,99409.19
2023-03-30T13:41:30.227Z,99389.84
2023-03-30T13:44:09.482Z,99391.47
2023-03-30T13:46:48.214Z,99382.84
2023-03-30T13:49:41.542Z,99380.19
2023-03-30T13:52:15.446Z,99373.59
2023-03-30T13:54:45.325Z,99362.72
2023-03-30T13:57:18.983Z,99367.47
2023-03-30T13:59:53.915Z,99355.16
2023-03-30T14:02:26.386Z,99329.06
2023-03-30T14:04:55.262Z,99349.69
2023-03-30T14:07:25.923Z,99343.50
2023-03-30T14:10:06.617Z,99333.25
2023-03-30T14:12:38.912Z,99324.66
2023-03-30T14:15:19.409Z,99330.19
2023-03-30T14:17:53.166Z,99324.47
2023-03-30T14:20:31.527Z,99304.78
2023-03-30T14:23:01.456Z,99304.59
2023-03-30T14:25:33.529Z,99299.25
2023-03-30T14:28:05.291Z,99299.44
2023-03-30T14:30:35.091Z,99283.28
2023-03-30T14:33:10.273Z,99277.31
2023-03-30T14:35:43.531Z,99265.19
2023-03-30T14:38:17.849Z,99256.00
2023-03-30T14:40:48.195Z,99259.84
2023-03-30T14:43:20.701Z,99248.78
2023-03-30T14:45:50.723Z,99247.56
2023-03-30T14:48:26.637Z,99262.13
2023-03-30T14:50:55.181Z,99261.50
2023-03-30T14:53:27.952Z,99268.25
2023-03-30T14:55:58.433Z,99273.59
2023-03-30T14:58:28.974Z,99275.00
2023-03-30T15:00:59.321Z,99279.91
2023-03-30T15:03:34.253Z,99288.72
2023-03-30T15:06:04.988Z,99295.47
2023-03-30T15:08:37.650Z,99293.81
2023-03-30T15:11:10.967Z,99287.63
2023-03-30T15:13:44.361Z,99294.84
2023-03-30T15:16:20.794Z,99298.13
2023-03-30T15:18:54.228Z,99277.81
2023-03-30T15:21:25.697Z,99274.94
2023-03-30T15:23:56.009Z,99263.66
2023-03-30T15:26:27.358Z,99265.09
2023-03-30T15:29:00.872Z,99265.91
2023-03-30T15:31:30.170Z,99270.22
2023-03-30T15:34:01.297Z,99265.91
2023-03-30T15:36:39.294Z,99264.44
2023-03-30T15:39:22.019Z,99264.19
2023-03-30T15:42:00.988Z,99267.06
2023-03-30T15:44:30.384Z,99250.41
2023-03-30T15:47:00.271Z,99241.22
2023-03-30T15:49:36.183Z,99233.56
2023-03-30T15:52:14.395Z,99231.97
2023-03-30T15:54:46.389Z,99230.13
2023-03-30T15:57:21.063Z,99232.53
2023-03-30T15:59:54.117Z,99230.88
2023-03-30T16:02:25.223Z,99233.94
2023-03-30T16:04:55.324Z,99225.50
2023-03-30T16:07:26.032Z,99221.59
2023-03-30T16:09:54.762Z,99221.38
2023-03-30T16:12:27.405Z,99223.16
2023-03-30T16:14:56.203Z,99221.34
2023-03-30T16:17:25.141Z,99209.81
2023-03-30T16:19:55.318Z,99209.38
2023-03-30T16:22:23.848Z,99214.50
2023-03-30T16:24:53.636Z,99210.59
2023-03-30T16:27:22.213Z,99207.69
2023-03-30T16:29:50.901Z,99209.34
2023-03-30T16:32:19.530Z,99212.19
2023-03-30T16:34:48.693Z,99216.31
2023-03-30T16:37:18.604Z,99213.25
2023-03-30T16:39:49.166Z,99213.88
2023-03-30T16:42:17.686Z,99216.56
2023-03-30T16:44:46.382Z,99210.63
2023-03-30T16:47:15.724Z,99214.38
2023-03-30T16:49:44.279Z,99228.69
2023-03-30T16:52:12.797Z,99229.88
2023-03-30T16:54:42.827Z,99211.41
2023-03-30T16:57:12.110Z,99211.66
2023-03-30T16:59:40.672Z,99204.09
2023-03-30T17:02:16.311Z,99206.38
2023-03-30T17:04:46.908Z,99218.59
2023-03-30T17:07:15.399Z,99229.97
2023-03-30T17:09:45.667Z,99231.78
2023-03-30T17:12:14.154Z,99235.22
2023-03-30T17:14:43.147Z,99244.69
2023-03-30T17:17:12.735Z,99242.66
2023-03-30T17:19:41.341Z,99224.94
2023-03-30T17:22:09.864Z,99233.81
2023-03-30T17:24:38.372Z,99249.00
2023-03-30T17:27:08.319Z,99244.97
2023-03-30T17:29:37.183Z,99222.81
2023-03-30T17:32:07.765Z,99238.63
2023-03-30T17:34:36.329Z,99253.56
2023-03-30T17:37:04.920Z,99255.31
2023-03-30T17:39:33.729Z,99255.94
2023-03-30T17:42:02.308Z,99254.88
2023-03-30T17:44:32.922Z,99257.34
2023-03-30T17:47:02.044Z,99247.09
2023-03-30T17:49:30.723Z,99250.94
2023-03-30T17:51:59.448Z,99246.22
2023-03-30T17:54:28.240Z,99244.19
2023-03-30T17:56:56.775Z,99239.44
2023-03-30T17:59:25.492Z,99237.16
2023-03-30T18:01:55.933Z,99236.97
2023-03-30T18:04:24.417Z,99235.31
2023-03-30T18:06:53.048Z,99240.66
2023-03-30T18:09:21.611Z,99240.00
2023-03-30T18:11:50.392Z,99232.84
2023-03-30T18:14:18.872Z,99232.41
2023-03-30T18:16:50.084Z,99243.06
2023-03-30T18:19:20.457Z,99234.06
2023-03-30T18:21:49.114Z,99242.84
2023-03-30T18:24:17.702Z,99226.22
2023-03-30T18:26:46.525Z,99256.22
2023-03-30T18:29:20.575Z,99249.69
2023-03-30T18:31:49.894Z,99248.88
2023-03-30T18:34:23.439Z,99241.53
2023-03-30T18:36:52.142Z,99240.75
2023-03-30T18:39:21.850Z,99246.72
2023-03-30T18:41:52.783Z,99257.97
2023-03-30T18:44:21.517Z,99257.97
2023-03-30T18:46:52.838Z,99268.81
2023-03-30T18:49:24.195Z,99263.31
2023-03-30T18:51:53.714Z,99257.97
2023-03-30T18:54:22.696Z,99270.56
2023-03-30T18:56:51.943Z,99265.22
2023-03-30T18:59:23.238Z,99267.06
2023-03-30T19:01:54.827Z,99256.59
2023-03-30T19:04:24.937Z,99270.91
2023-03-30T19:06:54.240Z,99266.66
2023-03-30T19:09:32.900Z,99291.00
2023-03-30T19:12:14.972Z,99313.88
2023-03-30T19:14:43.755Z,99308.00
2023-03-30T19:17:16.219Z,99320.47
2023-03-30T19:19:46.860Z,99310.84
2023-03-30T19:22:15.545Z,99308.84
2023-03-30T19:24:44.269Z,99310.19
2023-03-30T19:27:13.178Z,99308.31
2023-03-30T19:29:42.072Z,99309.50
2023-03-30T19:32:12.262Z,99318.06
2023-03-30T19:34:42.031Z,99322.03
2023-03-30T19:37:14.785Z,99330.59
2023-03-30T19:39:44.405Z,99332.75
2023-03-30T19:42:14.479Z,99345.50
2023-03-30T19:44:44.012Z,99335.06
2023-03-30T19:47:12.796Z,99321.19
2023-03-30T19:49:41.365Z,99332.19
2023-03-30T19:52:10.062Z,99322.66
2023-03-30T19:54:39.973Z,99320.56
2023-03-30T19:57:09.066Z,99315.41
2023-03-30T19:59:38.141Z,99327.06
2023-03-30T20:02:07.244Z,99336.09
2023-03-30T20:04:36.391Z,99330.72
2023-03-30T20:07:05.589Z,99336.56
2023-03-30T20:09:34.385Z,99339.59
2023-03-30T20:12:04.720Z,99348.41
2023-03-30T20:14:34.428Z,99345.94
2023-03-30T20:17:03.433Z,99342.03
2023-03-30T20:19:32.538Z,99354.03
2023-03-30T20:22:01.131Z,99358.53
2023-03-30T20:24:30.018Z,99352.13
2023-03-30T20:26:59.238Z,99357.97
2023-03-30T20:29:29.346Z,99354.84
2023-03-30T20:31:58.223Z,99347.69
2023-03-30T20:34:28.273Z,99352.16
2023-03-30T20:36:57.411Z,99351.06
2023-03-30T20:39:27.704Z,99349.69
2023-03-30T20:41:58.533Z,99340.72
2023-03-30T20:44:32.051Z,99346.03
2023-03-30T20:47:01.950Z,99345.09
2023-03-30T20:49:32.383Z,99342.63
2023-03-30T20:52:02.194Z,99342.09
2023-03-30T20:54:31.852Z,99342.91
2023-03-30T20:57:00.764Z,99328.25
2023-03-30T20:59:31.237Z,99345.41
2023-03-30T21:02:00.436Z,99336.50
2023-03-30T21:04:29.264Z,99355.72
2023-03-30T21:06:57.927Z,99358.09
2023-03-30T21:09:27.441Z,99350.66
2023-03-30T21:11:56.326Z,99360.47
2023-03-30T21:14:25.230Z,99350.19
2023-03-30T21:16:55.417Z,99354.56
2023-03-30T21:19:24.438Z,99354.56
2023-03-30T21:21:53.950Z,99357.22
2023-03-30T21:24:22.655Z,99357.59
2023-03-30T21:26:51.224Z,99343.75
2023-03-30T21:29:19.928Z,99359.47
2023-03-30T21:31:49.750Z,99354.13
2023-03-30T21:34:20.499Z,99344.09
2023-03-30T21:36:49.334Z,99363.28
2023-03-30T21:39:17.906Z,99352.22
2023-03-30T21:41:46.472Z,99364.69
2023-03-30T21:44:15.338Z,99355.97
2023-03-30T21:46:44.170Z,99351.69
2023-03-30T21:49:13.248Z,99355.53
2023-03-30T21:51:43.261Z,99361.34
2023-03-30T21:54:12.665Z,99352.09
2023-03-30T21:56:41.268Z,99365.00
2023-03-30T21:59:09.950Z,99363.06
2023-03-30T22:01:39.061Z,99361.41
2023-03-30T22:04:07.898Z,99367.72
2023-03-30T22:06:36.740Z,99358.81
2023-03-30T22:09:06.702Z,99366.44
2023-03-30T22:11:35.302Z,99362.47
2023-03-30T22:14:04.033Z,99355.22
2023-03-30T22:16:35.275Z,99363.16
2023-03-30T22:19:04.444Z,99350.25
2023-03-30T22:21:35.929Z,99339.66
2023-03-30T22:24:08.213Z,99347.28
2023-03-30T22:26:37.176Z,99340.69
2023-03-30T22:29:06.460Z,99339.38
2023-03-30T22:31:35.999Z,99343.69
2023-03-30T22:34:04.622Z,99338.06
2023-03-30T22:36:33.414Z,99339.41
2023-03-30T22:39:06.992Z,99341.72
2023-03-30T22:41:36.932Z,99341.06
2023-03-30T22:44:05.793Z,99337.13
2023-03-30T22:46:34.428Z,99339.44
2023-03-30T22:49:03.945Z,99346.06
2023-03-30T22:51:34.253Z,99335.97
2023-03-30T22:54:02.752Z,99350.03
2023-03-30T22:56:32.048Z,99343.09
2023-03-30T22:59:02.381Z,99342.13
2023-03-30T23:01:32.585Z,99343.09
2023-03-30T23:04:02.117Z,99336.16
2023-03-30T23:06:31.576Z,99342.59
2023-03-30T23:09:01.745Z,99343.78
2023-03-30T23:11:31.013Z,99337.50
2023-03-30T23:14:06.185Z,99327.41
2023-03-30T23:16:37.897Z,99333.69
2023-03-30T23:19:07.257Z,99339.31
2023-03-30T23:21:36.203Z,99318.69
2023-03-30T23:24:06.902Z,99327.44
2023-03-30T23:26:36.148Z,99327.94
2023-03-30T23:29:05.801Z,99323.97
2023-03-30T23:31:36.044Z,99328.28
2023-03-30T23:34:04.646Z,99322.34
2023-03-30T23:36:33.207Z,99315.88
2023-03-30T23:39:01.778Z,99326.31
2023-03-30T23:41:30.406Z,99317.53
2023-03-30T23:43:59.043Z,99318.19
2023-03-30T23:46:27.690Z,99319.03
2023-03-30T23:48:57.707Z,99317.72
2023-03-30T23:51:26.650Z,99322.34
2023-03-30T23:53:56.963Z,99330.59
2023-03-30T23:56:27.878Z,99319.50
2023-03-30T23:58:56.998Z,99334.22
